• Join FlightAware (Why Join?)
  • Login
  • US Flag 
03:25AM EDT


 

Airport Tracker/Info


-or-


 

Live Flight TrackerFlight Track Log ✈ UPS2054 ✈ 21-Nov-2013 ✈ KSDF - KMHT

Flight Track Log - Related Links

Times and Time Zones

All times are in EST time to prevent confusion due to time zone crossing. See the UPS2054 flight status page for this flight to view local times or setup timezone preferences in your user account.

Time Position Orientation Groundspeed Altitude Reporting Facility
EST Latitude Longitude Course Direction KTS MPH feet Rate Location/Type
04:51PM 38.1000 -85.7333 62° Northeast 216 249 3,900  Level Louisville TRACON
04:51PM 38.0767 -85.7092 141° Southeast 231 266 4,700 2,340 Climbing Indianapolis Center
04:52PM 38.0769 -85.6064 90° East 295 339 7,700 2,700 Climbing Indianapolis Center
04:53PM 38.0719 -85.4992 93° East 303 349 10,400 2,280 Climbing Indianapolis Center
04:54PM 38.0725 -85.3703 90° East 362 417 12,500 2,400 Climbing Indianapolis Center
04:55PM 38.3075 -85.2180 99° East  Level Estimated
04:55PM 38.0650 -85.2292 94° East 398 458 15,400  Level Indianapolis Center
04:56PM 38.3634 -85.0853 62° Northeast  Level Estimated
04:56PM 38.0403 -85.0492 100° East 427 491 19,000  Level Indianapolis Center
05:02PM 37.9267 -84.1194 100° East 517 595 31,600 2,220 Climbing FlightAware ADS-B
05:03PM 37.9445 -83.9024 84° East 518 596 33,800 600 Climbing FlightAware ADS-B
05:08PM 38.1044 -83.1167 75° East 513 590 35,000 240 Climbing FlightAware ADS-B
05:08PM 38.1138 -83.0816 71° East 510 587 35,000  Level FlightAware ADS-B
05:08PM 38.1362 -83.0183 66° East 507 583 35,000  Level FlightAware ADS-B
05:09PM 38.1853 -82.9206 66° East 507 583 35,000  Level Indianapolis Center
05:10PM 38.2694 -82.7806 53° Northeast 497 572 35,000  Level Indianapolis Center
05:11PM 38.3533 -82.6389 53° Northeast 499 574 35,000  Level Indianapolis Center
05:12PM 38.4469 -82.4819 53° Northeast 499 574 35,000  Level Indianapolis Center
05:13PM 38.5297 -82.3397 53° Northeast 497 572 35,000  Level Indianapolis Center
05:14PM 38.6147 -82.1975 53° Northeast 499 574 35,000  Level Indianapolis Center
05:15PM 38.6986 -82.0531 53° Northeast 502 578 35,000  Level Indianapolis Center
05:16PM 38.7833 -81.9081 53° Northeast 503 579 35,000  Level Indianapolis Center
05:17PM 38.8683 -81.7608 53° Northeast 504 580 35,000  Level Indianapolis Center
05:18PM 38.9531 -81.6136 53° Northeast 504 580 35,000  Level Indianapolis Center
05:19PM 39.0358 -81.4675 54° Northeast 500 575 35,000  Level Indianapolis Center
05:20PM 39.1183 -81.3236 54° Northeast 497 572 35,000  Level Indianapolis Center
05:21PM 39.2172 -81.1483 54° Northeast 500 575 35,000  Level Indianapolis Center
05:22PM 39.2975 -81.0058 54° Northeast 495 570 35,000  Level Indianapolis Center
05:23PM 39.3781 -80.8628 54° Northeast 491 565 35,000  Level Indianapolis Center
05:24PM 39.4578 -80.7200 54° Northeast 489 563 35,000  Level Indianapolis Center
05:25PM 39.5372 -80.5769 54° Northeast 488 562 35,000  Level Indianapolis Center
05:26PM 39.6164 -80.4331 54° Northeast 489 563 35,000  Level Indianapolis Center
05:32PM 40.0646 -79.6144 54° Northeast 499 574 35,000  Level FlightAware ADS-B (KAGC)
05:33PM 40.1178 -79.5161 54° Northeast 498 573 35,000  Level Cleveland Center
05:34PM 40.1900 -79.3192 64° Northeast 518 596 35,000  Level Cleveland Center
05:35PM 40.2539 -79.1608 62° Northeast 498 573 35,000  Level Cleveland Center
05:36PM 40.3353 -79.0208 53° Northeast 490 564 35,000  Level Cleveland Center
05:37PM 40.4150 -78.8781 54° Northeast 488 562 35,000  Level Cleveland Center
05:38PM 40.4950 -78.7403 53° Northeast 483 556 35,000  Level Cleveland Center
05:39PM 40.5914 -78.5717 53° Northeast 485 558 35,000  Level Cleveland Center
05:40PM 40.6706 -78.4306 53° Northeast 485 558 35,000  Level Cleveland Center
05:41PM 40.7492 -78.2897 54° Northeast 484 557 35,000  Level Cleveland Center
05:42PM 40.8294 -78.1481 53° Northeast 488 562 35,000  Level Cleveland Center
05:43PM 40.9228 -77.9758 54° Northeast 487 560 35,000  Level Cleveland Center
05:44PM 40.9814 -77.8436 60° Northeast 488 562 35,000  Level New York Center
05:45PM 41.0511 -77.6886 59° Northeast 483 556 35,000  Level New York Center
05:46PM 41.1206 -77.5331 59° Northeast 483 556 35,000  Level New York Center
05:47PM 41.1919 -77.3747 59° Northeast 490 564 35,000  Level New York Center
05:48PM 41.2586 -77.2211 60° Northeast 484 557 35,000  Level New York Center
05:49PM 41.3256 -77.0617 61° Northeast 489 563 35,000  Level New York Center
05:50PM 41.3942 -76.9078 59° Northeast 484 557 35,000  Level New York Center
05:52PM 41.5386 -76.5708 60° Northeast 477 549 35,000  Level Boston Center
05:53PM 41.6181 -76.3831 60° Northeast 477 549 35,000  Level Boston Center
05:54PM 41.6842 -76.2272 60° Northeast 477 549 35,000  Level Boston Center
05:55PM 41.7494 -76.0719 61° Northeast 476 548 35,000  Level Boston Center
05:56PM 41.8144 -75.9172 61° Northeast 475 547 35,000  Level Boston Center
05:57PM 41.8786 -75.7631 61° Northeast 474 545 35,000  Level Boston Center
05:58PM 41.9428 -75.6083 61° Northeast 474 545 35,000  Level Boston Center
06:00PM 42.0067 -75.4539 61° Northeast 473 544 35,000  Level Boston Center
06:01PM 42.0706 -75.2994 61° Northeast 473 544 35,000 -420 Level Boston Center
06:02PM 42.1231 -75.1222 68° East 477 549 34,200 -900 Descending Boston Center
06:03PM 42.1661 -74.9567 71° East 471 542 33,200 -1,020 Descending Boston Center
06:04PM 42.2075 -74.7914 71° East 468 539 32,200 -1,080 Descending Boston Center
06:05PM 42.2561 -74.5936 72° East 464 534 31,100 -960 Descending Boston Center
06:06PM 42.2972 -74.4253 72° East 461 531 30,300 -1,320 Descending Boston Center
06:11PM 42.5033 -73.5654 72° East 452 520 22,500 -1,620 Descending FlightAware ADS-B (KSNC)
06:13PM 42.5795 -73.2405 72° East 418 481 19,100 -1,200 Descending FlightAware ADS-B (KSNC)
06:14PM 42.6246 -73.0443 73° East 425 489 19,000 -60 Descending FlightAware ADS-B (KSNC)
06:15PM 42.6352 -72.9982 73° East 424 488 19,000  Level FlightAware ADS-B (KSNC)
06:15PM 42.6698 -72.8466 73° East 427 491 19,000 -120 Level FlightAware ADS-B (KSNC)
06:16PM 42.7045 -72.6927 73° East 423 487 18,900 -1,560 Descending FlightAware ADS-B (KSNC)
06:18PM 42.7634 -72.4295 73° East 397 457 14,800 -2,400 Descending FlightAware ADS-B (KSNC)
06:19PM 42.7842 -72.3360 73° East 386 444 13,100 -2,220 Descending FlightAware ADS-B (KSNC)
06:21PM 42.8111 -72.0898 81° East 316 364 9,300 -1,860 Descending FlightAware ADS-B
06:21PM 42.8141 -72.0511 84° East 299 344 9,100 -900 Descending FlightAware ADS-B
06:21PM 42.8170 -72.0137 84° East 298 343 8,700 -1,140 Descending FlightAware ADS-B
06:22PM 42.8188 -71.9886 84° East 296 341 8,500 -600 Descending FlightAware ADS-B
06:22PM 42.8242 -71.9588 76° East 295 339 8,400 -720 Descending FlightAware ADS-B
06:22PM 42.8312 -71.9453 55° Northeast 288 331 8,200 -1,200 Descending FlightAware ADS-B
06:22PM 42.8509 -71.9171 46° Northeast 287 330 7,800 -1,200 Descending FlightAware ADS-B
06:23PM 42.8694 -71.8911 46° Northeast 284 327 7,400 -1,200 Descending FlightAware ADS-B
06:23PM 42.8889 -71.8643 45° Northeast 291 335 7,000 -900 Descending FlightAware ADS-B
06:23PM 42.9077 -71.8396 44° Northeast 279 321 6,800 -900 Descending FlightAware ADS-B
06:24PM 42.9266 -71.8145 44° Northeast 276 318 6,400 -1,020 Descending FlightAware ADS-B
06:24PM 42.9428 -71.7926 45° Northeast 275 316 6,200 -1,080 Descending FlightAware ADS-B
06:24PM 42.9638 -71.7648 44° Northeast 272 313 5,700 -1,560 Descending FlightAware ADS-B
06:25PM 42.9815 -71.7411 44° Northeast 272 313 5,100 -1,800 Descending FlightAware ADS-B
06:25PM 42.9996 -71.7159 46° Northeast 260 299 4,500 -1,980 Descending FlightAware ADS-B
06:25PM 43.0156 -71.6931 46° Northeast 262 302 3,800 -2,100 Descending FlightAware ADS-B
06:26PM 43.0335 -71.6671 47° Northeast 260 299 3,100 -1,620 Descending FlightAware ADS-B
06:26PM 43.0466 -71.6409 56° Northeast 261 300 2,700 -900 Descending FlightAware ADS-B
06:26PM 43.0537 -71.6099 73° East 248 285 2,500 -600 Descending FlightAware ADS-B
06:27PM 43.0608 -71.5797 72° East 244 281 2,300 -600 Descending FlightAware ADS-B
06:27PM 43.0624 -71.5649 82° East 239 275 2,200 -600 Descending FlightAware ADS-B
06:27PM 43.0601 -71.5357 96° East 227 261 2,000 -540 Descending FlightAware ADS-B
06:28PM 43.0539 -71.5135 111° Southeast 209 241 1,900 -600 Descending FlightAware ADS-B
06:28PM 43.0459 -71.5010 131° Southeast 201 231 1,700 -540 Descending FlightAware ADS-B
06:28PM 43.0384 -71.4962 155° Southeast 190 219 1,700 -600 Level FlightAware ADS-B
06:28PM 43.0226 -71.4876 158° South 176 203 1,400 -600 Descending FlightAware ADS-B
06:29PM 43.0090 -71.4793 156° South 145 167 1,300 -600 Descending FlightAware ADS-B
06:29PM 42.9965 -71.4721 157° South 138 159 1,000 -780 Descending FlightAware ADS-B
06:29PM 42.9850 -71.4652 156° South 128 147 800 -780 Descending FlightAware ADS-B
06:30PM 42.9736 -71.4583 156° South 128 147 500 -720 Descending FlightAware ADS-B
06:30PM 42.9649 -71.4532 157° South 128 147 400 -420 Descending FlightAware ADS-B
06:38PM 42.9328 -71.4358 316° Northwest  Level Estimated
06:39PM 42.9328 -71.4358 316° Northwest  Level Estimated
06:40PM 42.9328 -71.4358 316° Northwest  Level Estimated
06:41PM 42.9328 -71.4358 316° Northwest  Level Estimated
06:42PM 42.9328 -71.4358 316° Northwest  Level Estimated
06:43PM 42.9328 -71.4358 316° Northwest  Level Estimated
06:44PM 42.9328 -71.4358 316° Northwest  Level Estimated
06:45PM 42.9328 -71.4358 316° Northwest  Level Estimated
06:46PM 42.9328 -71.4358 316° Northwest  Level Estimated
06:47PM 42.9328 -71.4358 316° Northwest  Level Estimated
06:48PM 42.9328 -71.4358 316° Northwest  Level Estimated
06:49PM 42.9328 -71.4358 316° Northwest  Level Estimated
06:50PM 42.9328 -71.4358 316° Northwest  Level Estimated